Time;durP1;ratioP1;P1;durP2;ratioP2;P2;SDS_P1;SDS_P2;PMS_P1;PMS_P2;Temp;Humidity;BMP_temperature;BMP_pressure;BME280_temperature;BME280_humidity;BME280_pressure;Samples;Min_cycle;Max_cycle;Signal;HPM_P1;HPM_P2
2022/04/27 00:02:15;;;;;;;9.77;6.10;;;;;;;;;;6308795;22;20506;-63
2022/04/27 00:04:41;;;;;;;7.13;6.10;;;;;;;;;;6308822;22;20193;-63
2022/04/27 00:07:07;;;;;;;8.77;6.35;;;;;;;;;;6308712;22;20157;-62
2022/04/27 00:09:33;;;;;;;10.02;7.22;;;;;;;;;;6309238;22;20158;-62
2022/04/27 00:12:01;;;;;;;10.63;6.65;;;;;;;;;;6308665;22;20268;-62
2022/04/27 00:14:27;;;;;;;11.07;7.28;;;;;;;;;;6309063;22;20143;-62
2022/04/27 00:16:53;;;;;;;10.75;6.85;;;;;;;;;;6308706;22;20495;-61
2022/04/27 00:19:19;;;;;;;10.15;6.80;;;;;;;;;;6308702;22;20138;-62
2022/04/27 00:21:45;;;;;;;9.52;7.20;;;;;;;;;;6309003;22;20142;-61
2022/04/27 00:24:11;;;;;;;8.07;6.80;;;;;;;;;;6309036;22;20153;-63
2022/04/27 00:26:37;;;;;;;10.98;7.18;;;;;;;;;;6308695;22;20200;-62
2022/04/27 00:29:03;;;;;;;10.07;6.80;;;;;;;;;;6308674;22;20576;-63
2022/04/27 00:31:31;;;;;;;11.20;7.38;;;;;;;;;;6308616;22;20177;-63
2022/04/27 00:33:57;;;;;;;10.88;7.13;;;;;;;;;;6309060;22;20157;-62
2022/04/27 00:36:23;;;;;;;10.40;7.40;;;;;;;;;;6308876;22;20135;-62
2022/04/27 00:38:49;;;;;;;11.00;6.93;;;;;;;;;;6308738;22;20143;-62
2022/04/27 00:41:15;;;;;;;10.02;7.30;;;;;;;;;;6308589;22;20461;-63
2022/04/27 00:43:42;;;;;;;11.73;7.32;;;;;;;;;;6309264;22;20435;-62
2022/04/27 00:46:11;;;;;;;12.10;7.25;;;;;;;;;;6308782;22;20135;-63
2022/04/27 00:48:39;;;;;;;10.10;7.30;;;;;;;;;;6308415;22;20153;-62
2022/04/27 00:51:06;;;;;;;9.98;7.68;;;;;;;;;;6308626;22;20438;-62
2022/04/27 00:53:32;;;;;;;10.15;7.60;;;;;;;;;;6308771;22;20492;-62
2022/04/27 00:55:59;;;;;;;10.73;7.22;;;;;;;;;;6308492;22;20146;-62
2022/04/27 00:58:25;;;;;;;12.48;7.60;;;;;;;;;;6309182;22;20143;-62
2022/04/27 01:00:52;;;;;;;12.02;7.68;;;;;;;;;;6308698;22;20139;-62
2022/04/27 01:03:19;;;;;;;12.73;7.85;;;;;;;;;;6308418;22;20139;-62
2022/04/27 01:05:45;;;;;;;11.32;7.82;;;;;;;;;;6308302;22;20143;-62
2022/04/27 01:08:11;;;;;;;10.77;7.82;;;;;;;;;;6308071;22;20153;-62
2022/04/27 01:10:37;;;;;;;11.75;8.30;;;;;;;;;;6308595;22;20521;-62
2022/04/27 01:13:03;;;;;;;11.68;8.27;;;;;;;;;;6308369;22;20205;-62
2022/04/27 01:15:30;;;;;;;11.95;8.43;;;;;;;;;;6308546;22;20139;-62
2022/04/27 01:17:57;;;;;;;11.98;8.25;;;;;;;;;;6308826;22;20616;-62
2022/04/27 01:20:23;;;;;;;13.23;8.02;;;;;;;;;;6308923;22;20139;-62
2022/04/27 01:22:49;;;;;;;10.63;7.80;;;;;;;;;;6308431;22;20150;-62
2022/04/27 01:25:15;;;;;;;12.48;8.38;;;;;;;;;;6308389;22;20150;-62
2022/04/27 01:27:44;;;;;;;12.48;8.55;;;;;;;;;;6308182;22;20549;-62
2022/04/27 01:30:10;;;;;;;12.70;8.85;;;;;;;;;;6308136;22;20185;-62
2022/04/27 01:32:36;;;;;;;12.52;8.45;;;;;;;;;;6309421;22;20253;-61
2022/04/27 01:35:02;;;;;;;13.10;8.85;;;;;;;;;;6308273;22;20218;-62
2022/04/27 01:40:13;;;;;;;15.30;9.68;;;;;;;;;;6308448;22;20141;-62
2022/04/27 01:42:39;;;;;;;12.65;8.65;;;;;;;;;;6308155;22;20511;-62
2022/04/27 01:45:06;;;;;;;13.05;9.00;;;;;;;;;;6308405;22;20242;-62
2022/04/27 01:47:32;;;;;;;15.13;9.63;;;;;;;;;;6307963;22;20152;-62
2022/04/27 01:49:58;;;;;;;14.00;10.02;;;;;;;;;;6308414;22;20433;-62
2022/04/27 01:55:09;;;;;;;15.00;9.15;;;;;;;;;;6308109;22;20196;-62
2022/04/27 01:57:34;;;;;;;15.15;11.07;;;;;;;;;;6307844;22;20139;-62
2022/04/27 02:00:00;;;;;;;16.67;10.80;;;;;;;;;;6307920;22;20466;-61
2022/04/27 02:02:26;;;;;;;16.45;10.48;;;;;;;;;;6308221;22;20233;-61
2022/04/27 02:04:53;;;;;;;15.88;11.13;;;;;;;;;;6308240;22;20518;-61
2022/04/27 02:07:19;;;;;;;19.35;12.10;;;;;;;;;;6308243;22;20150;-60
2022/04/27 02:09:45;;;;;;;18.50;11.63;;;;;;;;;;6308381;22;20435;-61
2022/04/27 02:12:11;;;;;;;18.33;12.35;;;;;;;;;;6307853;22;20601;-61
2022/04/27 02:14:36;;;;;;;18.67;12.07;;;;;;;;;;6307861;22;20139;-61
2022/04/27 02:17:02;;;;;;;20.42;11.93;;;;;;;;;;6307895;22;20146;-61
2022/04/27 02:19:28;;;;;;;19.10;13.23;;;;;;;;;;6308170;22;20443;-61
2022/04/27 02:21:56;;;;;;;18.38;12.40;;;;;;;;;;6309859;22;20204;-61
2022/04/27 02:24:22;;;;;;;20.75;13.25;;;;;;;;;;6310363;22;20139;-61
2022/04/27 02:26:47;;;;;;;19.77;12.82;;;;;;;;;;6309914;22;20139;-61
2022/04/27 02:29:16;;;;;;;21.42;13.82;;;;;;;;;;6310480;22;20416;-61
2022/04/27 02:31:42;;;;;;;20.90;13.95;;;;;;;;;;6309841;22;20473;-61
2022/04/27 02:34:08;;;;;;;20.77;13.02;;;;;;;;;;6309939;22;20442;-61
2022/04/27 02:36:34;;;;;;;20.13;13.45;;;;;;;;;;6309866;22;20145;-61
2022/04/27 02:39:00;;;;;;;23.40;14.00;;;;;;;;;;6309761;22;20135;-61
2022/04/27 02:41:26;;;;;;;22.88;14.18;;;;;;;;;;6310524;22;20210;-61
2022/04/27 02:43:51;;;;;;;23.10;14.05;;;;;;;;;;6309698;22;20407;-61
2022/04/27 02:46:17;;;;;;;23.20;14.80;;;;;;;;;;6310223;22;20438;-61
2022/04/27 02:51:48;;;;;;;23.65;15.10;;;;;;;;;;6309617;22;20143;-62
2022/04/27 02:54:14;;;;;;;22.92;14.45;;;;;;;;;;6310023;22;20135;-61
2022/04/27 02:56:39;;;;;;;27.25;15.48;;;;;;;;;;6309600;22;20139;-61
2022/04/27 02:59:05;;;;;;;27.83;15.82;;;;;;;;;;6309534;22;20538;-61
2022/04/27 03:01:31;;;;;;;25.00;14.15;;;;;;;;;;6309560;22;20222;-61
2022/04/27 03:03:57;;;;;;;22.77;14.68;;;;;;;;;;6309740;22;20146;-61
2022/04/27 03:06:23;;;;;;;26.80;15.40;;;;;;;;;;6309559;22;20181;-61
2022/04/27 03:08:49;;;;;;;28.13;15.68;;;;;;;;;;6309359;22;20143;-61
2022/04/27 03:11:15;;;;;;;29.10;17.00;;;;;;;;;;6309297;22;20170;-61
2022/04/27 03:13:41;;;;;;;25.73;16.50;;;;;;;;;;6309706;22;20419;-61
2022/04/27 03:16:07;;;;;;;26.77;17.10;;;;;;;;;;6309755;22;20142;-61
2022/04/27 03:18:32;;;;;;;27.00;16.77;;;;;;;;;;6309287;22;20485;-60
2022/04/27 03:20:58;;;;;;;31.92;17.67;;;;;;;;;;6311428;22;20165;-62
2022/04/27 03:23:24;;;;;;;29.63;17.88;;;;;;;;;;6309467;22;20150;-62
2022/04/27 03:25:50;;;;;;;30.50;18.15;;;;;;;;;;6309555;22;20138;-60
2022/04/27 03:28:16;;;;;;;26.33;17.20;;;;;;;;;;6309185;22;20139;-60
2022/04/27 03:30:42;;;;;;;30.67;18.40;;;;;;;;;;6308997;22;20155;-62
2022/04/27 03:33:08;;;;;;;29.25;17.63;;;;;;;;;;6309016;22;20466;-62
2022/04/27 03:35:34;;;;;;;27.20;16.98;;;;;;;;;;6309448;22;20143;-60
2022/04/27 03:38:01;;;;;;;29.95;17.00;;;;;;;;;;6309215;22;20139;-61
2022/04/27 03:40:27;;;;;;;29.05;16.63;;;;;;;;;;6309675;22;20143;-61
2022/04/27 03:42:53;;;;;;;31.00;17.85;;;;;;;;;;6309108;22;20224;-61
2022/04/27 03:45:20;;;;;;;30.80;17.67;;;;;;;;;;6309139;22;20229;-61
2022/04/27 03:47:47;;;;;;;30.95;17.33;;;;;;;;;;6308906;22;20638;-61
2022/04/27 03:50:12;;;;;;;31.98;17.63;;;;;;;;;;6309484;22;20459;-61
2022/04/27 03:52:38;;;;;;;32.50;17.67;;;;;;;;;;6308722;22;20260;-61
2022/04/27 03:55:04;;;;;;;29.85;16.75;;;;;;;;;;6308820;22;20558;-62
2022/04/27 03:57:30;;;;;;;28.38;16.83;;;;;;;;;;6309283;22;20143;-62
2022/04/27 03:59:56;;;;;;;31.50;17.83;;;;;;;;;;6309173;22;20476;-62
2022/04/27 04:02:22;;;;;;;27.67;16.17;;;;;;;;;;6308898;22;20149;-62
2022/04/27 04:04:48;;;;;;;28.77;16.17;;;;;;;;;;6309193;22;20169;-61
2022/04/27 04:07:14;;;;;;;29.00;15.30;;;;;;;;;;6308999;22;20226;-61
2022/04/27 04:09:40;;;;;;;25.25;15.52;;;;;;;;;;6308938;22;20142;-61
2022/04/27 04:12:07;;;;;;;25.35;14.90;;;;;;;;;;6309029;22;20170;-61
2022/04/27 04:14:33;;;;;;;26.48;14.80;;;;;;;;;;6309093;22;20218;-61
2022/04/27 04:16:59;;;;;;;27.40;14.70;;;;;;;;;;6309158;22;20162;-61
2022/04/27 04:19:25;;;;;;;27.58;15.27;;;;;;;;;;6309070;22;20601;-60
2022/04/27 04:21:51;;;;;;;25.30;14.80;;;;;;;;;;6309137;22;20166;-62
2022/04/27 04:24:17;;;;;;;22.90;13.95;;;;;;;;;;6309396;22;20178;-62
2022/04/27 04:29:28;;;;;;;25.48;14.68;;;;;;;;;;6308724;22;20243;-60
2022/04/27 04:31:54;;;;;;;22.95;14.55;;;;;;;;;;6308982;22;20167;-58
2022/04/27 04:34:20;;;;;;;27.27;16.08;;;;;;;;;;6308627;22;20609;-60
2022/04/27 04:36:45;;;;;;;28.23;14.85;;;;;;;;;;6308626;22;20135;-59
2022/04/27 04:39:11;;;;;;;27.98;16.30;;;;;;;;;;6309036;22;20167;-61
2022/04/27 04:41:37;;;;;;;30.65;15.48;;;;;;;;;;6308757;22;20570;-61
2022/04/27 04:44:03;;;;;;;24.92;14.90;;;;;;;;;;6308759;22;20586;-61
2022/04/27 04:46:29;;;;;;;24.42;15.02;;;;;;;;;;6308776;22;20146;-60
2022/04/27 04:48:55;;;;;;;31.33;15.20;;;;;;;;;;6308724;22;20151;-61
2022/04/27 04:51:21;;;;;;;26.63;15.07;;;;;;;;;;6323798;22;20164;-62
2022/04/27 04:53:47;;;;;;;26.35;15.52;;;;;;;;;;6310455;22;20412;-61
2022/04/27 04:56:13;;;;;;;27.48;15.85;;;;;;;;;;6308352;22;20169;-61
2022/04/27 05:01:42;;;;;;;26.45;14.70;;;;;;;;;;6308473;22;20192;-61
2022/04/27 05:04:09;;;;;;;28.13;15.98;;;;;;;;;;6308170;22;20569;-61
2022/04/27 05:06:35;;;;;;;26.70;14.65;;;;;;;;;;6308508;22;20218;-60
2022/04/27 05:09:01;;;;;;;23.42;13.95;;;;;;;;;;6308163;22;20174;-60
2022/04/27 05:11:27;;;;;;;26.35;14.18;;;;;;;;;;6308228;22;20167;-60
2022/04/27 05:13:53;;;;;;;24.23;13.90;;;;;;;;;;6308127;22;20139;-62
2022/04/27 05:16:19;;;;;;;24.23;14.18;;;;;;;;;;6308120;22;20150;-62
2022/04/27 05:18:44;;;;;;;24.50;13.07;;;;;;;;;;6308302;22;20208;-61
2022/04/27 05:21:11;;;;;;;24.60;13.98;;;;;;;;;;6308948;22;20149;-61
2022/04/27 05:23:36;;;;;;;25.40;13.88;;;;;;;;;;6308983;22;20165;-60
2022/04/27 05:26:03;;;;;;;30.98;14.15;;;;;;;;;;6308564;22;20498;-61
2022/04/27 05:31:53;;;;;;;23.35;14.10;;;;;;;;;;6308856;22;20222;-60
2022/04/27 05:33:59;;;;;;;21.20;12.48;;;;;;;;;;6308452;22;20392;-60
2022/04/27 05:36:25;;;;;;;28.15;13.60;;;;;;;;;;6308371;22;20147;-61
2022/04/27 05:38:51;;;;;;;22.05;12.52;;;;;;;;;;6308483;22;20153;-60
2022/04/27 05:41:17;;;;;;;24.67;12.57;;;;;;;;;;6308617;22;20139;-61
2022/04/27 05:43:43;;;;;;;20.02;12.18;;;;;;;;;;6308033;22;20653;-61
2022/04/27 05:46:09;;;;;;;20.27;12.38;;;;;;;;;;6308333;22;20230;-61
2022/04/27 05:48:35;;;;;;;20.80;12.02;;;;;;;;;;6308014;22;20193;-61
2022/04/27 05:51:02;;;;;;;19.95;12.68;;;;;;;;;;6307815;22;20221;-61
2022/04/27 05:53:28;;;;;;;19.08;11.75;;;;;;;;;;6308165;22;20174;-61
2022/04/27 05:55:54;;;;;;;17.05;11.07;;;;;;;;;;6307921;22;20261;-61
2022/04/27 05:58:20;;;;;;;18.58;11.18;;;;;;;;;;6308177;22;20146;-61
2022/04/27 06:00:46;;;;;;;17.60;10.80;;;;;;;;;;6308103;22;20134;-61
2022/04/27 06:03:12;;;;;;;20.90;10.50;;;;;;;;;;6308140;22;20150;-60
2022/04/27 06:05:38;;;;;;;17.92;10.80;;;;;;;;;;6307803;22;20139;-60
2022/04/27 06:08:06;;;;;;;16.55;10.10;;;;;;;;;;6307854;22;20150;-60
2022/04/27 06:10:32;;;;;;;15.90;10.48;;;;;;;;;;6307620;22;20557;-61
2022/04/27 06:12:58;;;;;;;14.60;9.85;;;;;;;;;;6308016;22;20158;-60
2022/04/27 06:15:24;;;;;;;19.05;10.88;;;;;;;;;;6307830;22;20166;-60
2022/04/27 06:17:51;;;;;;;18.27;11.43;;;;;;;;;;6308025;22;20146;-60
2022/04/27 06:20:17;;;;;;;14.85;10.23;;;;;;;;;;6308415;22;20150;-60
2022/04/27 06:22:42;;;;;;;18.60;10.85;;;;;;;;;;6308419;22;20545;-60
2022/04/27 06:25:09;;;;;;;16.25;10.30;;;;;;;;;;6307900;22;20146;-60
2022/04/27 06:27:35;;;;;;;16.30;9.77;;;;;;;;;;6307767;22;20526;-61
2022/04/27 06:30:01;;;;;;;22.17;10.95;;;;;;;;;;6307546;22;20243;-61
2022/04/27 06:32:29;;;;;;;15.55;9.80;;;;;;;;;;6308088;22;20178;-61
2022/04/27 06:34:55;;;;;;;17.98;9.52;;;;;;;;;;6307959;22;20139;-61
2022/04/27 06:37:21;;;;;;;15.10;9.75;;;;;;;;;;6307787;22;20135;-61
2022/04/27 06:39:47;;;;;;;16.77;9.43;;;;;;;;;;6308076;22;20651;-61
2022/04/27 06:42:13;;;;;;;16.20;9.63;;;;;;;;;;6307595;22;20162;-59
2022/04/27 06:44:39;;;;;;;16.38;9.30;;;;;;;;;;6308747;22;20258;-61
2022/04/27 06:47:05;;;;;;;14.60;8.95;;;;;;;;;;6307916;22;20554;-60
2022/04/27 06:49:31;;;;;;;14.20;9.20;;;;;;;;;;6308330;22;20147;-60
2022/04/27 06:51:57;;;;;;;12.25;9.00;;;;;;;;;;6307690;22;20220;-61
2022/04/27 06:54:23;;;;;;;19.23;9.32;;;;;;;;;;6280779;22;20221;-60
2022/04/27 06:56:49;;;;;;;16.60;9.68;;;;;;;;;;6307548;22;20135;-61
2022/04/27 06:59:15;;;;;;;22.15;10.02;;;;;;;;;;6307631;22;20139;-61
2022/04/27 07:01:40;;;;;;;14.30;9.32;;;;;;;;;;6307669;22;20201;-60
2022/04/27 07:04:09;;;;;;;11.48;7.50;;;;;;;;;;6308015;22;20143;-61
2022/04/27 07:06:35;;;;;;;12.00;7.28;;;;;;;;;;6309071;22;20143;-61
2022/04/27 07:09:01;;;;;;;9.82;6.82;;;;;;;;;;6309550;22;20174;-62
2022/04/27 07:11:27;;;;;;;15.30;7.78;;;;;;;;;;6309367;22;20147;-62
2022/04/27 07:13:54;;;;;;;10.70;7.82;;;;;;;;;;6309438;22;20442;-62
2022/04/27 07:16:20;;;;;;;11.55;7.72;;;;;;;;;;6309719;22;20143;-62
2022/04/27 07:18:46;;;;;;;11.75;7.57;;;;;;;;;;6309629;22;20416;-62
2022/04/27 07:21:12;;;;;;;10.88;8.25;;;;;;;;;;6309792;22;20179;-62
2022/04/27 07:23:38;;;;;;;12.55;7.50;;;;;;;;;;6309392;22;20135;-62
2022/04/27 07:26:06;;;;;;;10.73;8.50;;;;;;;;;;6309284;22;20135;-62
2022/04/27 07:28:32;;;;;;;11.57;8.32;;;;;;;;;;6309444;22;20481;-62
2022/04/27 07:30:58;;;;;;;12.98;8.13;;;;;;;;;;6309135;22;20147;-62
2022/04/27 07:33:24;;;;;;;13.85;8.95;;;;;;;;;;6309420;22;20574;-62
2022/04/27 07:35:50;;;;;;;18.75;9.20;;;;;;;;;;6309522;22;20214;-62
2022/04/27 07:38:16;;;;;;;14.82;8.82;;;;;;;;;;6309365;22;20580;-61
2022/04/27 07:40:42;;;;;;;16.38;8.93;;;;;;;;;;6309160;22;20135;-62
2022/04/27 07:43:08;;;;;;;12.80;8.40;;;;;;;;;;6309526;22;20170;-62
2022/04/27 07:45:34;;;;;;;15.95;8.60;;;;;;;;;;6309340;22;20214;-62
2022/04/27 07:48:00;;;;;;;19.23;7.78;;;;;;;;;;6309059;22;20143;-62
2022/04/27 07:50:26;;;;;;;11.30;7.80;;;;;;;;;;6309029;22;20538;-61
2022/04/27 07:52:52;;;;;;;10.82;7.72;;;;;;;;;;6309554;22;20163;-61
2022/04/27 07:55:17;;;;;;;15.45;8.57;;;;;;;;;;6309012;22;20479;-63
2022/04/27 07:57:45;;;;;;;13.13;7.85;;;;;;;;;;6309562;22;20146;-61
2022/04/27 08:00:14;;;;;;;12.40;7.85;;;;;;;;;;6309283;22;20562;-63
2022/04/27 08:02:40;;;;;;;12.60;6.90;;;;;;;;;;6309290;22;20211;-61
2022/04/27 08:05:07;;;;;;;11.20;7.43;;;;;;;;;;6309334;22;20192;-63
2022/04/27 08:07:37;;;;;;;14.68;7.55;;;;;;;;;;6309134;22;20226;-62
2022/04/27 08:10:13;;;;;;;12.80;8.23;;;;;;;;;;6309076;22;20212;-63
2022/04/27 08:12:40;;;;;;;9.07;7.78;;;;;;;;;;6309125;22;20176;-62
2022/04/27 08:15:06;;;;;;;11.35;7.32;;;;;;;;;;6309164;22;20145;-63
2022/04/27 08:17:33;;;;;;;12.45;7.63;;;;;;;;;;6309432;22;20234;-63
2022/04/27 08:22:43;;;;;;;10.02;6.25;;;;;;;;;;6309052;22;20142;-62
2022/04/27 08:25:09;;;;;;;12.02;6.45;;;;;;;;;;6308940;22;20143;-62
2022/04/27 08:27:35;;;;;;;10.60;6.70;;;;;;;;;;6308932;22;20143;-61
2022/04/27 08:30:01;;;;;;;9.60;6.13;;;;;;;;;;6308765;22;20174;-61
2022/04/27 08:32:27;;;;;;;10.68;6.65;;;;;;;;;;6309138;22;20167;-60
2022/04/27 08:34:53;;;;;;;9.43;6.05;;;;;;;;;;6309135;22;20227;-61
2022/04/27 08:37:19;;;;;;;10.65;5.57;;;;;;;;;;6308668;22;20722;-61
2022/04/27 08:39:45;;;;;;;12.20;6.25;;;;;;;;;;6308872;22;20203;-62
2022/04/27 08:42:12;;;;;;;8.82;5.80;;;;;;;;;;6308593;22;20173;-62
2022/04/27 08:44:38;;;;;;;7.40;5.55;;;;;;;;;;6308560;22;20157;-62
2022/04/27 08:47:05;;;;;;;9.50;5.35;;;;;;;;;;6309144;22;20162;-62
2022/04/27 08:49:34;;;;;;;11.38;5.70;;;;;;;;;;6308779;22;20149;-62
2022/04/27 08:52:03;;;;;;;11.73;5.80;;;;;;;;;;6308891;22;20514;-62
2022/04/27 08:54:33;;;;;;;10.48;5.72;;;;;;;;;;6308670;22;20145;-62
2022/04/27 08:56:59;;;;;;;6.97;5.53;;;;;;;;;;6308541;22;20573;-62
2022/04/27 08:59:25;;;;;;;10.27;5.75;;;;;;;;;;6308527;22;20539;-62
2022/04/27 09:01:51;;;;;;;7.75;5.80;;;;;;;;;;6308526;22;20211;-62
2022/04/27 09:04:19;;;;;;;8.50;5.57;;;;;;;;;;6308831;22;20153;-62
2022/04/27 09:06:46;;;;;;;8.98;5.63;;;;;;;;;;6309065;22;20143;-62
2022/04/27 09:09:31;;;;;;;9.68;5.32;;;;;;;;;;6309044;22;20143;-61
2022/04/27 09:11:57;;;;;;;7.95;4.93;;;;;;;;;;6308419;22;20581;-62
2022/04/27 09:14:35;;;;;;;7.78;4.95;;;;;;;;;;6308446;22;20139;-62
2022/04/27 09:22:44;;;;;;;8.32;4.50;;;;;;;;;;6308291;22;20146;-62
2022/04/27 09:25:11;;;;;;;5.57;3.42;;;;;;;;;;6308563;22;20154;-61
2022/04/27 09:27:37;;;;;;;5.38;3.35;;;;;;;;;;6308249;22;20143;-63
2022/04/27 09:30:03;;;;;;;5.07;3.63;;;;;;;;;;6308152;22;20465;-63
2022/04/27 09:32:29;;;;;;;6.65;3.30;;;;;;;;;;6308527;22;20174;-61
2022/04/27 09:34:56;;;;;;;4.97;3.45;;;;;;;;;;6308813;22;20139;-62
2022/04/27 09:37:24;;;;;;;6.43;3.63;;;;;;;;;;6308184;22;20138;-61
2022/04/27 09:40:06;;;;;;;6.22;2.88;;;;;;;;;;6308443;22;20634;-62
2022/04/27 09:42:33;;;;;;;6.50;3.45;;;;;;;;;;6308119;22;20143;-63
2022/04/27 09:45:15;;;;;;;7.88;3.47;;;;;;;;;;6308206;22;20150;-62
2022/04/27 09:47:53;;;;;;;11.23;4.75;;;;;;;;;;6307931;22;20149;-63
2022/04/27 09:50:19;;;;;;;9.13;4.00;;;;;;;;;;6308531;22;20153;-62
2022/04/27 09:52:45;;;;;;;9.52;4.40;;;;;;;;;;6308251;22;20174;-63
2022/04/27 09:55:11;;;;;;;6.70;4.03;;;;;;;;;;6308705;22;20145;-63
2022/04/27 09:57:38;;;;;;;5.20;3.80;;;;;;;;;;6309304;22;20150;-63
2022/04/27 10:00:05;;;;;;;6.60;4.13;;;;;;;;;;6308306;22;20139;-63
2022/04/27 10:02:31;;;;;;;7.72;4.30;;;;;;;;;;6307595;22;20139;-63
2022/04/27 10:04:59;;;;;;;6.60;3.95;;;;;;;;;;6308241;22;20146;-62
2022/04/27 10:07:25;;;;;;;6.78;3.90;;;;;;;;;;6308116;22;20218;-62
2022/04/27 10:09:52;;;;;;;7.22;4.10;;;;;;;;;;6307718;22;20139;-62
2022/04/27 10:12:18;;;;;;;5.22;4.43;;;;;;;;;;6307635;22;20174;-62
2022/04/27 10:14:45;;;;;;;4.97;4.22;;;;;;;;;;6308324;22;20143;-61
2022/04/27 10:17:12;;;;;;;5.57;4.45;;;;;;;;;;6307932;22;20135;-61
2022/04/27 10:19:43;;;;;;;6.82;4.40;;;;;;;;;;6308902;22;20154;-62
2022/04/27 10:22:24;;;;;;;9.60;4.30;;;;;;;;;;6308079;22;20138;-62
2022/04/27 10:24:50;;;;;;;7.05;4.28;;;;;;;;;;6308575;22;20131;-62
2022/04/27 10:27:35;;;;;;;8.82;5.68;;;;;;;;;;6308319;22;20153;-62
2022/04/27 10:30:08;;;;;;;7.85;4.30;;;;;;;;;;6308085;22;20173;-61
2022/04/27 10:33:03;;;;;;;6.70;4.25;;;;;;;;;;6307421;22;20169;-61
2022/04/27 10:35:33;;;;;;;8.85;4.50;;;;;;;;;;6281134;22;20150;-61
2022/04/27 10:38:02;;;;;;;7.57;4.28;;;;;;;;;;6308041;22;20293;-63
2022/04/27 10:40:29;;;;;;;6.75;4.70;;;;;;;;;;6308827;22;20147;-62
2022/04/27 10:43:00;;;;;;;8.27;4.60;;;;;;;;;;6310089;22;20153;-62
2022/04/27 10:45:28;;;;;;;6.57;4.38;;;;;;;;;;6309811;22;20534;-62
2022/04/27 10:47:54;;;;;;;7.47;4.85;;;;;;;;;;6309880;22;20174;-63
2022/04/27 10:50:21;;;;;;;7.38;4.60;;;;;;;;;;6310177;22;20150;-62
2022/04/27 10:52:55;;;;;;;7.07;4.93;;;;;;;;;;6309873;22;20522;-62
2022/04/27 10:55:37;;;;;;;6.30;4.30;;;;;;;;;;6309708;22;20150;-61
2022/04/27 10:58:13;;;;;;;6.95;4.40;;;;;;;;;;6310554;22;20151;-62
2022/04/27 11:00:57;;;;;;;8.48;4.15;;;;;;;;;;6309630;22;20145;-61
2022/04/27 11:03:24;;;;;;;5.22;3.80;;;;;;;;;;6309273;22;20142;-62
2022/04/27 11:05:51;;;;;;;7.57;4.22;;;;;;;;;;6309882;22;20147;-63
2022/04/27 11:08:24;;;;;;;5.00;4.25;;;;;;;;;;6309262;22;20448;-61
2022/04/27 11:10:52;;;;;;;5.85;4.20;;;;;;;;;;6309186;22;20567;-63
2022/04/27 11:13:18;;;;;;;7.00;4.32;;;;;;;;;;6309577;22;20167;-63
2022/04/27 11:15:45;;;;;;;8.70;4.60;;;;;;;;;;6309358;22;20652;-63
2022/04/27 11:18:12;;;;;;;5.95;4.43;;;;;;;;;;6309605;22;20216;-63
2022/04/27 11:20:39;;;;;;;6.55;4.75;;;;;;;;;;6309723;22;20150;-62
2022/04/27 11:23:07;;;;;;;8.50;4.60;;;;;;;;;;6309574;22;20142;-62
2022/04/27 11:25:35;;;;;;;6.60;4.65;;;;;;;;;;6309772;22;20585;-63
2022/04/27 11:28:02;;;;;;;8.27;5.20;;;;;;;;;;6309414;22;20226;-63
2022/04/27 11:30:29;;;;;;;8.32;3.90;;;;;;;;;;6309330;22;20163;-63
2022/04/27 11:32:55;;;;;;;5.22;4.28;;;;;;;;;;6309198;22;20166;-63
2022/04/27 11:35:23;;;;;;;8.73;4.38;;;;;;;;;;6309595;22;20221;-63
2022/04/27 11:37:50;;;;;;;6.35;5.47;;;;;;;;;;6309467;22;20235;-62
2022/04/27 11:40:17;;;;;;;7.10;5.28;;;;;;;;;;6309542;22;20142;-62
2022/04/27 11:42:43;;;;;;;5.38;3.42;;;;;;;;;;6309120;22;20167;-63
2022/04/27 11:45:11;;;;;;;6.60;4.07;;;;;;;;;;6309091;22;20447;-63
2022/04/27 11:47:37;;;;;;;9.73;5.28;;;;;;;;;;6309342;22;20139;-63
2022/04/27 11:50:03;;;;;;;5.63;4.15;;;;;;;;;;6309055;22;20218;-63
2022/04/27 11:52:39;;;;;;;4.57;4.13;;;;;;;;;;6309216;22;20497;-62
2022/04/27 11:55:10;;;;;;;5.97;4.72;;;;;;;;;;6309434;22;20126;-62
2022/04/27 11:57:36;;;;;;;6.85;5.40;;;;;;;;;;6309268;22;20142;-62
2022/04/27 12:00:03;;;;;;;9.55;4.57;;;;;;;;;;6308750;22;20214;-62
2022/04/27 12:02:29;;;;;;;5.72;4.53;;;;;;;;;;6309291;22;20154;-62
2022/04/27 12:04:58;;;;;;;5.25;4.75;;;;;;;;;;6309740;22;20433;-62
2022/04/27 12:07:24;;;;;;;5.85;4.20;;;;;;;;;;6309108;22;20143;-62
2022/04/27 12:09:57;;;;;;;9.00;5.38;;;;;;;;;;6309125;22;20174;-62
2022/04/27 12:12:24;;;;;;;5.22;4.60;;;;;;;;;;6309012;22;20170;-62
2022/04/27 12:14:50;;;;;;;7.50;4.70;;;;;;;;;;6309261;22;20142;-62
2022/04/27 12:17:35;;;;;;;8.45;4.85;;;;;;;;;;6309133;22;20139;-62
2022/04/27 12:20:01;;;;;;;7.10;4.30;;;;;;;;;;6308715;22;20139;-62
2022/04/27 12:22:27;;;;;;;5.72;4.22;;;;;;;;;;6309304;22;20162;-62
2022/04/27 12:25:00;;;;;;;6.97;5.28;;;;;;;;;;6308883;22;20192;-62
2022/04/27 12:27:26;;;;;;;6.32;4.40;;;;;;;;;;6308932;22;20128;-62
2022/04/27 12:30:03;;;;;;;8.27;4.82;;;;;;;;;;6308727;22;20167;-62
2022/04/27 12:32:32;;;;;;;6.90;4.35;;;;;;;;;;6308873;22;20190;-62
2022/04/27 12:37:49;;;;;;;5.47;3.85;;;;;;;;;;6308906;22;20497;-61
2022/04/27 12:40:15;;;;;;;6.45;4.68;;;;;;;;;;6308643;22;20146;-61
2022/04/27 12:43:00;;;;;;;6.93;4.82;;;;;;;;;;6308701;22;20143;-62
2022/04/27 12:45:26;;;;;;;9.90;5.57;;;;;;;;;;6308336;22;20162;-61
2022/04/27 12:47:52;;;;;;;5.95;4.72;;;;;;;;;;6308668;22;20139;-63
2022/04/27 12:50:18;;;;;;;8.10;5.07;;;;;;;;;;6308810;22;20170;-62
2022/04/27 12:52:45;;;;;;;6.93;4.22;;;;;;;;;;6308807;22;20163;-62
2022/04/27 12:55:15;;;;;;;8.60;4.78;;;;;;;;;;6309088;22;20157;-62
2022/04/27 12:57:47;;;;;;;6.88;3.95;;;;;;;;;;6308341;22;20142;-63
2022/04/27 13:00:14;;;;;;;8.88;4.30;;;;;;;;;;6308183;22;20272;-63
2022/04/27 13:02:40;;;;;;;8.40;3.80;;;;;;;;;;6307934;22;20139;-63
2022/04/27 13:05:08;;;;;;;5.47;4.07;;;;;;;;;;6308221;22;20147;-63
2022/04/27 13:07:33;;;;;;;8.43;3.88;;;;;;;;;;6308615;22;20150;-63
2022/04/27 13:12:44;;;;;;;7.28;4.10;;;;;;;;;;6308533;22;20227;-63
2022/04/27 13:15:11;;;;;;;7.38;4.28;;;;;;;;;;6308489;22;20150;-62
2022/04/27 13:17:37;;;;;;;7.93;3.58;;;;;;;;;;6308769;22;20169;-63
2022/04/27 13:20:03;;;;;;;4.88;3.70;;;;;;;;;;6308833;22;20166;-63
2022/04/27 13:22:30;;;;;;;5.55;3.78;;;;;;;;;;6308839;22;20448;-63
2022/04/27 13:24:56;;;;;;;5.70;3.42;;;;;;;;;;6308847;22;20447;-62
2022/04/27 13:27:24;;;;;;;5.63;3.55;;;;;;;;;;6281042;22;20147;-63
2022/04/27 13:29:50;;;;;;;5.50;3.80;;;;;;;;;;6308387;22;20173;-62
2022/04/27 13:32:15;;;;;;;8.18;4.13;;;;;;;;;;6308866;22;20159;-62
2022/04/27 13:34:41;;;;;;;4.97;3.10;;;;;;;;;;6308576;22;20139;-62
2022/04/27 13:37:07;;;;;;;6.35;3.63;;;;;;;;;;6308594;22;20139;-62
2022/04/27 13:39:33;;;;;;;6.70;3.63;;;;;;;;;;6308799;22;20184;-62
2022/04/27 13:42:00;;;;;;;6.28;4.20;;;;;;;;;;6308384;22;20142;-62
2022/04/27 13:44:28;;;;;;;4.40;3.80;;;;;;;;;;6308308;22;20154;-62
2022/04/27 13:46:54;;;;;;;4.55;3.80;;;;;;;;;;6308712;22;20209;-62
2022/04/27 13:49:20;;;;;;;4.63;3.50;;;;;;;;;;6308189;22;20458;-62
2022/04/27 13:51:47;;;;;;;5.95;4.15;;;;;;;;;;6308069;22;20241;-62
2022/04/27 13:54:14;;;;;;;5.95;3.95;;;;;;;;;;6308328;22;20291;-62
2022/04/27 13:56:40;;;;;;;6.03;4.13;;;;;;;;;;6308478;22;20143;-61
2022/04/27 13:59:06;;;;;;;4.82;3.50;;;;;;;;;;6308038;22;20552;-61
2022/04/27 14:01:32;;;;;;;4.40;3.90;;;;;;;;;;6307647;22;20213;-61
2022/04/27 14:03:58;;;;;;;4.75;4.00;;;;;;;;;;6312224;22;20150;-61
2022/04/27 14:06:24;;;;;;;6.03;3.80;;;;;;;;;;6321274;22;20562;-62
2022/04/27 14:08:51;;;;;;;9.32;3.90;;;;;;;;;;6309077;22;20410;-61
2022/04/27 14:14:02;;;;;;;5.20;3.72;;;;;;;;;;6308647;22;20141;-61
2022/04/27 14:19:13;;;;;;;6.05;4.80;;;;;;;;;;6312276;22;20442;-61
2022/04/27 14:21:39;;;;;;;6.00;4.93;;;;;;;;;;6285138;22;20166;-61
2022/04/27 14:24:05;;;;;;;7.38;4.93;;;;;;;;;;6311658;22;20242;-62
2022/04/27 14:26:31;;;;;;;7.70;5.38;;;;;;;;;;6311368;22;20536;-61
2022/04/27 14:28:56;;;;;;;5.05;3.95;;;;;;;;;;6311130;22;20180;-61
2022/04/27 14:31:22;;;;;;;6.88;4.05;;;;;;;;;;6311440;22;20135;-62
2022/04/27 14:33:49;;;;;;;6.20;4.28;;;;;;;;;;6311645;22;20174;-61
2022/04/27 14:36:15;;;;;;;9.18;4.88;;;;;;;;;;6311099;22;20763;-62
2022/04/27 14:38:41;;;;;;;6.45;4.28;;;;;;;;;;6311437;22;20138;-62
2022/04/27 14:41:07;;;;;;;6.00;4.20;;;;;;;;;;6311122;22;20139;-62
2022/04/27 14:43:32;;;;;;;7.35;4.50;;;;;;;;;;6311537;22;20169;-62
2022/04/27 14:45:58;;;;;;;7.25;5.35;;;;;;;;;;6311452;22;20139;-62
2022/04/27 14:48:24;;;;;;;7.65;5.25;;;;;;;;;;6311440;22;20202;-63
2022/04/27 14:50:51;;;;;;;9.63;5.72;;;;;;;;;;6311376;22;20572;-63
2022/04/27 14:53:16;;;;;;;9.20;5.28;;;;;;;;;;6311363;22;20166;-63
2022/04/27 14:55:43;;;;;;;6.80;5.00;;;;;;;;;;6311227;22;20131;-63
2022/04/27 14:58:09;;;;;;;8.73;4.80;;;;;;;;;;6311497;22;20221;-62
2022/04/27 15:00:36;;;;;;;7.57;4.68;;;;;;;;;;6311709;22;20189;-62
2022/04/27 15:03:04;;;;;;;8.32;5.05;;;;;;;;;;6312039;22;20153;-63
2022/04/27 15:05:30;;;;;;;6.55;4.10;;;;;;;;;;6311297;22;20145;-63
2022/04/27 15:07:55;;;;;;;6.75;4.82;;;;;;;;;;6311876;22;20252;-63